Time;durP1;ratioP1;P1;durP2;ratioP2;P2;SDS_P1;SDS_P2;PMS_P1;PMS_P2;Temp;Humidity;BMP_temperature;BMP_pressure;BME280_temperature;BME280_humidity;BME280_pressure;Samples;Min_cycle;Max_cycle;Signal;HPM_P1;HPM_P2
2022/01/17 00:01:17;;;;;;;16.85;1.35;;;6.10;99.90;;;;;;5047673;28;20036;-60
2022/01/17 00:03:42;;;;;;;;;;;6.00;99.90;;;;;;5048532;28;20040;-60
2022/01/17 00:06:08;;;;;;;10.38;1.02;;;6.10;99.90;;;;;;5048233;28;19921;-60
2022/01/17 00:08:40;;;;;;;16.65;1.45;;;6.10;99.90;;;;;;5048982;28;20112;-60
2022/01/17 00:11:06;;;;;;;12.63;1.40;;;6.10;99.90;;;;;;5046950;28;20044;-60
2022/01/17 00:13:31;;;;;;;18.27;2.73;;;6.10;99.90;;;;;;5048839;28;20036;-60
2022/01/17 00:16:05;;;;;;;14.30;1.63;;;6.10;99.90;;;;;;5046848;28;20045;-61
2022/01/17 00:19:03;;;;;;;11.05;1.10;;;6.10;99.90;;;;;;5048693;28;20044;-60
2022/01/17 00:21:17;;;;;;;17.27;2.85;;;6.10;99.90;;;;;;5048204;28;20316;-60
2022/01/17 00:23:43;;;;;;;15.70;1.38;;;6.00;99.90;;;;;;5048597;28;20402;-60
2022/01/17 00:26:09;;;;;;;15.65;2.08;;;6.00;99.90;;;;;;5048051;28;20037;-59
2022/01/17 00:28:34;;;;;;;15.10;1.77;;;6.00;99.90;;;;;;5047409;28;20044;-59
2022/01/17 00:31:04;;;;;;;11.75;1.55;;;6.00;99.90;;;;;;5048007;28;20408;-60
2022/01/17 00:33:30;;;;;;;12.45;1.92;;;6.00;99.90;;;;;;5048862;28;20037;-60
2022/01/17 00:35:56;;;;;;;17.02;1.90;;;5.90;99.90;;;;;;5048103;28;20037;-60
2022/01/17 00:38:22;;;;;;;16.33;1.50;;;5.90;99.90;;;;;;5048427;28;20047;-60
2022/01/17 00:40:47;;;;;;;14.90;1.33;;;5.90;99.90;;;;;;5048416;28;20536;-60
2022/01/17 00:43:13;;;;;;;20.80;2.37;;;5.80;99.90;;;;;;5048828;28;20268;-60
2022/01/17 00:45:41;;;;;;;7.80;1.23;;;5.80;99.90;;;;;;5047670;28;20535;-60
2022/01/17 00:48:07;;;;;;;15.15;1.88;;;5.80;99.90;;;;;;5048278;28;20520;-61
2022/01/17 00:50:37;;;;;;;12.85;1.63;;;5.80;99.90;;;;;;5046470;28;20120;-60
2022/01/17 00:53:04;;;;;;;21.58;1.92;;;5.80;99.90;;;;;;5048762;28;20544;-60
2022/01/17 00:55:31;;;;;;;10.82;1.23;;;5.70;99.90;;;;;;5047673;28;20045;-58
2022/01/17 00:57:56;;;;;;;;;;;5.80;99.90;;;;;;5047330;28;20559;-60
2022/01/17 01:00:22;;;;;;;13.48;1.85;;;5.80;99.90;;;;;;5051712;28;19921;-60
2022/01/17 01:02:48;;;;;;;13.80;1.57;;;5.70;99.90;;;;;;5055466;28;20252;-59
2022/01/17 01:05:14;;;;;;;21.13;2.87;;;5.70;99.90;;;;;;5050819;28;20325;-59
2022/01/17 01:07:40;;;;;;;16.85;1.98;;;5.70;99.90;;;;;;5046102;28;20119;-60
2022/01/17 01:10:10;;;;;;;10.88;2.20;;;5.70;99.90;;;;;;5048089;28;20117;-59
2022/01/17 01:12:37;;;;;;;12.48;1.23;;;5.70;99.90;;;;;;5063287;28;20068;-60
2022/01/17 01:15:06;;;;;;;20.88;2.80;;;5.70;99.90;;;;;;5051494;28;20391;-61
2022/01/17 01:17:35;;;;;;;13.73;1.73;;;5.70;99.90;;;;;;5051369;28;20041;-59
2022/01/17 01:20:19;;;;;;;11.65;1.27;;;5.70;99.90;;;;;;5052066;28;20104;-59
2022/01/17 01:28:14;;;;;;;13.63;1.45;;;5.70;99.90;;;;;;5051559;28;20045;-58
2022/01/17 01:30:44;;;;;;;14.13;4.05;;;5.70;99.90;;;;;;5051871;28;20033;-59
2022/01/17 01:33:10;;;;;;;10.65;1.20;;;5.70;99.90;;;;;;5051491;28;20040;-59
2022/01/17 01:35:44;;;;;;;12.15;1.10;;;5.70;99.90;;;;;;5033150;28;20510;-61
2022/01/17 01:38:09;;;;;;;16.88;1.10;;;5.70;99.90;;;;;;5051297;28;20076;-59
2022/01/17 01:40:36;;;;;;;10.90;1.57;;;5.70;99.90;;;;;;5051406;28;20045;-61
2022/01/17 01:43:02;;;;;;;20.83;2.92;;;5.60;99.90;;;;;;5051395;28;20538;-60
2022/01/17 01:45:27;;;;;;;12.05;1.02;;;5.60;99.90;;;;;;5051506;28;20068;-60
2022/01/17 01:47:53;;;;;;;17.25;1.63;;;5.60;99.90;;;;;;5051465;28;20036;-60
2022/01/17 01:50:19;;;;;;;14.27;1.50;;;5.60;99.90;;;;;;5051714;28;20482;-59
2022/01/17 01:52:45;;;;;;;12.38;2.15;;;5.60;99.90;;;;;;5051903;28;20029;-60
2022/01/17 01:55:13;;;;;;;12.70;2.08;;;5.60;99.90;;;;;;5051215;28;20039;-59
2022/01/17 01:57:42;;;;;;;18.02;1.45;;;5.60;99.90;;;;;;5050516;28;20083;-60
2022/01/17 02:00:09;;;;;;;15.90;1.92;;;5.50;99.90;;;;;;5049160;28;20041;-61
2022/01/17 02:02:36;;;;;;;11.80;1.77;;;5.50;99.90;;;;;;5049581;28;20033;-60
2022/01/17 02:05:03;;;;;;;14.23;1.38;;;5.40;99.90;;;;;;5051011;28;20049;-60
2022/01/17 02:07:29;;;;;;;20.77;2.28;;;5.50;99.90;;;;;;5049568;28;20040;-60
2022/01/17 02:09:54;;;;;;;10.73;1.00;;;5.40;99.90;;;;;;5050690;28;20049;-61
2022/01/17 02:12:21;;;;;;;8.17;1.57;;;5.40;99.90;;;;;;5051357;28;20120;-59
2022/01/17 02:14:50;;;;;;;9.25;1.13;;;5.40;99.90;;;;;;5050925;28;20048;-60
2022/01/17 02:17:19;;;;;;;15.65;1.90;;;5.40;99.90;;;;;;5050826;28;20073;-60
2022/01/17 02:19:46;;;;;;;13.25;2.03;;;5.30;99.90;;;;;;5050749;28;20041;-60
2022/01/17 02:22:15;;;;;;;22.60;1.50;;;5.30;99.90;;;;;;5049721;28;20610;-60
2022/01/17 02:24:41;;;;;;;11.48;1.45;;;5.30;99.90;;;;;;5049439;28;20041;-60
2022/01/17 02:27:06;;;;;;;15.48;1.98;;;5.30;99.90;;;;;;5049168;28;20414;-60
2022/01/17 02:29:32;;;;;;;12.40;1.73;;;5.40;99.90;;;;;;5050168;28;20040;-60
2022/01/17 02:31:58;;;;;;;14.27;1.50;;;5.30;99.90;;;;;;5050695;28;20048;-60
2022/01/17 02:34:23;;;;;;;12.77;2.27;;;5.40;99.90;;;;;;5050982;28;20029;-59
2022/01/17 02:36:49;;;;;;;12.07;1.40;;;5.30;99.90;;;;;;5050397;28;20044;-59
2022/01/17 02:39:16;;;;;;;22.75;2.83;;;5.30;99.90;;;;;;5050247;28;20051;-59
2022/01/17 02:41:44;;;;;;;;;;;5.30;99.90;;;;;;5050461;28;20025;-58
2022/01/17 02:44:10;;;;;;;;;;;5.40;99.90;;;;;;5050744;28;19917;-59
2022/01/17 02:46:36;;;;;;;17.35;1.83;;;5.30;99.90;;;;;;5050062;28;19921;-59
2022/01/17 02:49:03;;;;;;;10.63;1.40;;;5.30;99.90;;;;;;5050563;28;20025;-58
2022/01/17 02:51:30;;;;;;;19.85;1.95;;;5.30;99.90;;;;;;5049979;28;20665;-59
2022/01/17 02:53:56;;;;;;;22.92;2.83;;;5.30;99.90;;;;;;5048846;28;20045;-60
2022/01/17 02:56:22;;;;;;;21.73;3.65;;;5.20;99.90;;;;;;5049651;28;20568;-60
2022/01/17 02:58:48;;;;;;;12.77;2.33;;;5.20;99.90;;;;;;5049695;28;20044;-59
2022/01/17 03:01:20;;;;;;;12.13;1.20;;;5.10;99.90;;;;;;5050031;28;20119;-59
2022/01/17 03:03:46;;;;;;;16.77;1.52;;;5.20;99.90;;;;;;5050262;28;20520;-60
2022/01/17 03:06:13;;;;;;;12.83;1.60;;;5.10;99.90;;;;;;5049925;28;20045;-61
2022/01/17 03:08:40;;;;;;;26.83;3.08;;;5.00;99.90;;;;;;5050135;28;20032;-60
2022/01/17 03:11:09;;;;;;;14.50;1.95;;;5.00;99.90;;;;;;5049371;28;20063;-60
2022/01/17 03:13:37;;;;;;;14.50;1.10;;;4.90;99.90;;;;;;5050154;28;20576;-60
2022/01/17 03:16:30;;;;;;;21.65;1.50;;;4.90;99.90;;;;;;5048262;28;20037;-59
2022/01/17 03:18:57;;;;;;;9.45;1.25;;;4.80;99.90;;;;;;5048950;28;20502;-60
2022/01/17 03:21:23;;;;;;;14.68;1.83;;;4.80;99.90;;;;;;5048757;28;20116;-59
2022/01/17 03:23:50;;;;;;;11.88;1.73;;;4.80;99.90;;;;;;5048193;28;20029;-60
2022/01/17 03:26:16;;;;;;;26.23;2.25;;;4.80;99.90;;;;;;5049108;28;20069;-59
2022/01/17 03:28:42;;;;;;;18.17;2.50;;;4.80;99.90;;;;;;5048683;28;20090;-60
2022/01/17 03:31:09;;;;;;;10.48;1.23;;;4.70;99.90;;;;;;5048534;28;20037;-60
2022/01/17 03:33:35;;;;;;;10.63;1.75;;;4.70;99.90;;;;;;5049778;28;20125;-60
2022/01/17 03:36:01;;;;;;;17.55;1.63;;;4.70;99.90;;;;;;5048802;28;20035;-60
2022/01/17 03:38:30;;;;;;;14.27;2.03;;;4.70;99.90;;;;;;5048967;28;20040;-60
2022/01/17 03:40:58;;;;;;;17.45;1.67;;;4.70;99.90;;;;;;5049110;28;20037;-60
2022/01/17 03:43:24;;;;;;;20.23;1.95;;;4.70;99.90;;;;;;5048834;28;20576;-60
2022/01/17 03:45:50;;;;;;;24.92;2.17;;;4.70;99.90;;;;;;5048932;28;20052;-60
2022/01/17 03:48:18;;;;;;;11.55;1.33;;;4.70;99.90;;;;;;5049303;28;20051;-61
2022/01/17 03:50:43;;;;;;;13.80;1.80;;;4.70;99.90;;;;;;5048347;28;20037;-61
2022/01/17 03:53:10;;;;;;;23.97;3.13;;;4.70;99.90;;;;;;5049462;28;20528;-60
2022/01/17 03:55:36;;;;;;;21.85;2.63;;;4.70;99.90;;;;;;5048548;28;20136;-60
2022/01/17 03:58:04;;;;;;;18.17;2.65;;;4.70;99.90;;;;;;5049513;28;20037;-60
2022/01/17 04:00:37;;;;;;;21.77;2.25;;;4.70;99.90;;;;;;5048813;28;20393;-60
2022/01/17 04:03:02;;;;;;;14.25;1.77;;;4.70;99.90;;;;;;5049643;28;20048;-60
2022/01/17 04:05:28;;;;;;;18.70;1.90;;;4.70;99.90;;;;;;5047893;28;20071;-60
2022/01/17 04:07:54;;;;;;;21.30;2.00;;;4.80;99.90;;;;;;5049460;28;20547;-60
2022/01/17 04:10:19;;;;;;;17.60;2.03;;;4.80;99.90;;;;;;5048958;28;20311;-60
2022/01/17 04:12:46;;;;;;;19.40;2.17;;;4.80;99.90;;;;;;5048601;28;20037;-60
2022/01/17 04:15:12;;;;;;;18.73;2.20;;;4.80;99.90;;;;;;5051553;28;20414;-59
2022/01/17 04:17:40;;;;;;;;;;;4.80;99.90;;;;;;5052547;28;20052;-58
2022/01/17 04:20:09;;;;;;;17.30;1.58;;;4.80;99.90;;;;;;5052361;28;19959;-59
2022/01/17 04:22:39;;;;;;;14.70;0.82;;;4.80;99.90;;;;;;5048843;28;20036;-59
2022/01/17 04:25:07;;;;;;;15.73;1.73;;;4.80;99.90;;;;;;5047499;28;20513;-57
2022/01/17 04:27:33;;;;;;;13.48;1.50;;;4.80;99.90;;;;;;5047417;28;20541;-60
2022/01/17 04:29:59;;;;;;;17.63;1.83;;;4.80;99.90;;;;;;5049005;28;20033;-59
2022/01/17 04:32:25;;;;;;;11.23;1.50;;;4.80;99.90;;;;;;5049344;28;20033;-60
2022/01/17 04:34:50;;;;;;;16.63;1.53;;;4.80;99.90;;;;;;5048222;28;20087;-60
2022/01/17 04:37:16;;;;;;;14.70;1.53;;;4.70;99.90;;;;;;5049127;28;20040;-60
2022/01/17 04:39:42;;;;;;;17.35;2.47;;;4.70;99.90;;;;;;5047701;28;20158;-58
2022/01/17 04:42:12;;;;;;;15.07;1.67;;;4.60;99.90;;;;;;5048593;28;20095;-61
2022/01/17 04:47:29;;;;;;;13.82;1.63;;;4.60;99.90;;;;;;5030398;28;20041;-61
2022/01/17 04:49:55;;;;;;;22.05;1.80;;;4.50;99.90;;;;;;5047967;28;20105;-60
2022/01/17 04:52:21;;;;;;;14.75;1.67;;;4.50;99.90;;;;;;5048250;28;20116;-60
2022/01/17 04:54:52;;;;;;;33.80;4.68;;;4.50;99.90;;;;;;5047680;28;20037;-60
2022/01/17 04:57:19;;;;;;;12.00;1.17;;;4.40;99.90;;;;;;5047754;28;20037;-60
2022/01/17 04:59:44;;;;;;;11.85;1.52;;;4.40;99.90;;;;;;5047779;28;20044;-60
2022/01/17 05:02:11;;;;;;;8.13;1.70;;;4.40;99.90;;;;;;5048234;28;20037;-60
2022/01/17 05:04:37;;;;;;;16.00;2.47;;;4.30;99.90;;;;;;5047918;28;20048;-60
2022/01/17 05:07:05;;;;;;;16.98;1.70;;;4.30;99.90;;;;;;5048033;28;20394;-60
2022/01/17 05:09:31;;;;;;;19.60;2.22;;;4.30;99.90;;;;;;5048033;28;20119;-60
2022/01/17 05:11:56;;;;;;;21.15;2.45;;;4.30;99.90;;;;;;5047857;28;20155;-60
2022/01/17 05:14:22;;;;;;;12.87;2.00;;;4.30;99.90;;;;;;5048087;28;20047;-61
2022/01/17 05:16:53;;;;;;;13.87;1.13;;;4.30;99.90;;;;;;5046498;28;20110;-60
2022/01/17 05:22:03;;;;;;;20.38;1.98;;;4.40;99.90;;;;;;5030546;28;20057;-61
2022/01/17 05:24:29;;;;;;;17.42;1.80;;;4.40;99.90;;;;;;5046017;28;20041;-60
2022/01/17 05:26:54;;;;;;;12.50;1.57;;;4.50;99.90;;;;;;5048049;28;20033;-59
2022/01/17 05:29:21;;;;;;;24.30;1.93;;;4.50;99.90;;;;;;5047586;28;20037;-61
2022/01/17 05:31:47;;;;;;;14.30;1.45;;;4.50;99.90;;;;;;5048044;28;20394;-61
2022/01/17 05:34:13;;;;;;;14.10;1.85;;;4.60;99.90;;;;;;5047821;28;20037;-61
2022/01/17 05:36:39;;;;;;;17.30;1.37;;;4.60;99.90;;;;;;5047667;28;20120;-60
2022/01/17 05:39:05;;;;;;;13.17;1.50;;;4.70;99.90;;;;;;5047661;28;20036;-60
2022/01/17 05:41:31;;;;;;;14.07;1.08;;;4.70;99.90;;;;;;5046639;28;20056;-61
2022/01/17 05:43:56;;;;;;;16.93;2.17;;;4.80;99.90;;;;;;5048047;28;20498;-61
2022/01/17 05:46:22;;;;;;;8.70;1.63;;;4.80;99.90;;;;;;5047614;28;20710;-61
2022/01/17 05:48:47;;;;;;;14.07;1.50;;;4.90;99.90;;;;;;5047940;28;20391;-60
2022/01/17 05:51:13;;;;;;;12.90;1.93;;;4.90;99.90;;;;;;5047909;28;20037;-61
2022/01/17 05:53:38;;;;;;;19.37;2.03;;;4.90;99.90;;;;;;5047459;28;20037;-61
2022/01/17 05:56:04;;;;;;;22.93;3.90;;;5.00;99.90;;;;;;5047666;28;20387;-61
2022/01/17 05:58:30;;;;;;;21.67;2.42;;;5.10;99.90;;;;;;5046454;28;20486;-60
2022/01/17 06:00:55;;;;;;;13.47;1.97;;;5.10;99.90;;;;;;5049385;28;20041;-59
2022/01/17 06:03:21;;;;;;;12.50;1.73;;;5.20;99.90;;;;;;5050963;28;20037;-61
2022/01/17 06:05:46;;;;;;;21.00;2.30;;;5.20;99.90;;;;;;5050944;28;20191;-60
2022/01/17 06:08:12;;;;;;;21.80;2.57;;;5.20;99.90;;;;;;5049274;28;20032;-60
2022/01/17 06:10:38;;;;;;;15.38;2.95;;;5.30;99.90;;;;;;5050796;28;20116;-58
2022/01/17 06:13:04;;;;;;;14.77;2.27;;;5.30;99.90;;;;;;5050246;28;20028;-61
2022/01/17 06:15:30;;;;;;;16.98;3.25;;;5.30;99.90;;;;;;5050262;28;20456;-60
2022/01/17 06:17:55;;;;;;;12.05;2.47;;;5.40;99.90;;;;;;5050896;28;20025;-61
2022/01/17 06:20:21;;;;;;;20.27;2.60;;;5.40;99.90;;;;;;5051238;28;20090;-60
2022/01/17 06:22:46;;;;;;;15.53;2.67;;;5.40;99.90;;;;;;5050993;28;20033;-60
2022/01/17 06:25:12;;;;;;;17.07;2.07;;;5.40;99.90;;;;;;5050025;28;20049;-61
2022/01/17 06:27:38;;;;;;;29.07;5.17;;;5.50;99.90;;;;;;5051044;28;20393;-61
2022/01/17 06:30:04;;;;;;;14.73;2.17;;;5.50;99.90;;;;;;5050553;28;20410;-61
2022/01/17 06:32:31;;;;;;;14.98;3.13;;;5.50;99.90;;;;;;5030981;28;20034;-59
2022/01/17 06:34:57;;;;;;;15.50;3.20;;;5.50;99.90;;;;;;5036031;28;20094;-61
2022/01/17 06:37:23;;;;;;;12.70;2.08;;;5.50;99.90;;;;;;5050016;28;20041;-60
2022/01/17 06:39:49;;;;;;;20.85;2.58;;;5.50;99.90;;;;;;5050846;28;20067;-61
2022/01/17 06:42:15;;;;;;;12.43;3.60;;;5.60;99.90;;;;;;5050489;28;20048;-61
2022/01/17 06:44:40;;;;;;;20.73;4.57;;;5.60;99.90;;;;;;5065625;28;20075;-61
2022/01/17 06:47:07;;;;;;;26.50;4.00;;;5.60;99.90;;;;;;5046368;28;20056;-59
2022/01/17 06:49:32;;;;;;;;;;;5.60;99.90;;;;;;5050650;28;20036;-61
2022/01/17 06:51:58;;;;;;;18.15;4.15;;;5.60;99.90;;;;;;5050234;28;20377;-61
2022/01/17 06:54:24;;;;;;;13.30;3.53;;;5.60;99.90;;;;;;5048071;28;20049;-61
2022/01/17 06:56:49;;;;;;;19.13;4.50;;;5.60;99.90;;;;;;5035074;28;20052;-61
2022/01/17 06:59:15;;;;;;;23.80;5.03;;;5.60;99.90;;;;;;5048654;28;20464;-61
2022/01/17 07:01:41;;;;;;;16.03;4.83;;;5.70;99.90;;;;;;5049645;28;20037;-60
2022/01/17 07:04:09;;;;;;;22.98;4.68;;;5.70;99.90;;;;;;5048506;28;20049;-60
2022/01/17 07:06:35;;;;;;;26.85;6.43;;;5.70;99.90;;;;;;5049722;28;20457;-61
2022/01/17 07:09:02;;;;;;;25.20;8.00;;;5.70;99.90;;;;;;5050332;28;20041;-61
2022/01/17 07:11:28;;;;;;;27.00;7.80;;;5.70;99.90;;;;;;5049917;28;20460;-61
2022/01/17 07:13:54;;;;;;;37.43;7.77;;;5.80;99.90;;;;;;5050226;28;20091;-61
2022/01/17 07:16:19;;;;;;;22.83;6.20;;;5.70;99.90;;;;;;5041395;28;20041;-61
2022/01/17 07:18:45;;;;;;;29.60;7.37;;;5.80;99.90;;;;;;5049229;28;20093;-61
2022/01/17 07:21:11;;;;;;;25.37;7.23;;;5.80;99.90;;;;;;5049249;28;20292;-61
2022/01/17 07:23:36;;;;;;;25.20;5.97;;;5.80;99.90;;;;;;5050390;28;20037;-61
2022/01/17 07:26:02;;;;;;;22.57;7.27;;;5.80;99.90;;;;;;5049353;28;20472;-61
2022/01/17 07:28:28;;;;;;;40.40;8.13;;;5.90;99.90;;;;;;5050148;28;20091;-60
2022/01/17 07:30:54;;;;;;;27.97;8.07;;;5.90;99.90;;;;;;5050133;28;20029;-61
2022/01/17 07:33:21;;;;;;;28.83;7.07;;;5.90;99.90;;;;;;5049871;28;20337;-59
2022/01/17 07:35:48;;;;;;;26.23;7.47;;;5.90;99.90;;;;;;5049259;28;20040;-61
2022/01/17 07:38:15;;;;;;;19.80;7.95;;;5.90;99.90;;;;;;5053070;28;20098;-60
2022/01/17 07:40:43;;;;;;;30.23;7.60;;;5.90;99.90;;;;;;5055255;28;20060;-60
2022/01/17 07:43:10;;;;;;;37.65;9.75;;;5.90;99.90;;;;;;5051991;28;20389;-60
2022/01/17 07:45:37;;;;;;;23.10;8.18;;;6.00;99.90;;;;;;5049542;28;20397;-59
2022/01/17 07:50:28;;;;;;;23.60;8.68;;;5.90;99.90;;;;;;5048961;28;20041;-60
2022/01/17 07:52:54;;;;;;;25.43;8.37;;;6.00;99.90;;;;;;5049579;28;20029;-61
2022/01/17 07:55:21;;;;;;;24.97;7.43;;;6.00;99.90;;;;;;5049441;28;20051;-60
2022/01/17 07:57:47;;;;;;;24.08;7.40;;;6.00;99.90;;;;;;5038918;28;20298;-60
2022/01/17 08:00:20;;;;;;;30.83;7.85;;;6.00;99.90;;;;;;5041960;28;20044;-61
2022/01/17 08:02:47;;;;;;;31.90;8.25;;;6.00;99.90;;;;;;5048827;28;20045;-61
2022/01/17 08:05:14;;;;;;;27.13;8.15;;;6.10;99.90;;;;;;5047790;28;20123;-60
2022/01/17 08:07:43;;;;;;;26.15;7.68;;;6.10;99.90;;;;;;5049026;28;20041;-60
2022/01/17 08:10:12;;;;;;;22.52;7.50;;;6.10;99.90;;;;;;5048591;28;20052;-59
2022/01/17 08:12:47;;;;;;;29.95;8.07;;;6.10;99.90;;;;;;5047247;28;20040;-61
2022/01/17 08:15:15;;;;;;;27.45;6.07;;;6.10;99.90;;;;;;5047658;28;20106;-60
2022/01/17 08:17:40;;;;;;;21.20;6.35;;;6.10;99.90;;;;;;5048115;28;20059;-59
2022/01/17 08:20:07;;;;;;;33.47;8.60;;;6.20;99.90;;;;;;5048498;28;20119;-60
2022/01/17 08:22:33;;;;;;;;;;;6.20;99.90;;;;;;5048524;28;20422;-60
2022/01/17 08:24:58;;;;;;;27.75;6.97;;;6.20;99.90;;;;;;5046146;28;19920;-57
2022/01/17 08:27:24;;;;;;;31.73;6.77;;;6.20;99.90;;;;;;5048024;28;20115;-59
2022/01/17 08:29:49;;;;;;;29.83;7.30;;;6.20;99.90;;;;;;5046744;28;20075;-59
2022/01/17 08:32:15;;;;;;;29.43;7.60;;;6.20;99.90;;;;;;5048321;28;20095;-60
2022/01/17 08:34:41;;;;;;;27.13;7.73;;;6.20;99.90;;;;;;5048237;28;20692;-60
2022/01/17 08:37:06;;;;;;;28.15;6.55;;;6.30;99.90;;;;;;5048732;28;20075;-58
2022/01/17 08:39:32;;;;;;;36.97;6.37;;;6.30;99.90;;;;;;5047831;28;20041;-59
2022/01/17 08:41:58;;;;;;;37.53;6.00;;;6.30;99.90;;;;;;5048579;28;20041;-58
2022/01/17 08:44:24;;;;;;;21.90;5.47;;;6.30;99.90;;;;;;5047839;28;20516;-60
2022/01/17 08:46:50;;;;;;;;;;;6.30;99.90;;;;;;5048182;28;20160;-59
2022/01/17 08:49:16;;;;;;;23.45;5.97;;;6.40;99.90;;;;;;5048172;28;20640;-59
2022/01/17 08:51:42;;;;;;;34.92;6.65;;;6.40;99.90;;;;;;5048109;28;20041;-60
2022/01/17 08:54:08;;;;;;;32.50;6.72;;;6.40;99.90;;;;;;5049107;28;20041;-60
2022/01/17 08:56:34;;;;;;;32.93;4.93;;;6.40;99.90;;;;;;5047803;28;20517;-58
2022/01/17 08:59:02;;;;;;;20.13;5.13;;;6.40;99.90;;;;;;5047122;28;20052;-60
2022/01/17 09:01:27;;;;;;;24.30;5.45;;;6.40;99.90;;;;;;5050361;28;20048;-58
2022/01/17 09:03:53;;;;;;;31.63;6.07;;;6.40;99.90;;;;;;5047618;28;20561;-59
2022/01/17 09:06:19;;;;;;;22.95;4.88;;;6.50;99.90;;;;;;5047278;28;20518;-61
2022/01/17 09:08:45;;;;;;;24.65;4.97;;;6.50;99.90;;;;;;5048812;28;20478;-60
2022/01/17 09:11:10;;;;;;;31.40;3.90;;;6.50;99.90;;;;;;5046922;28;20048;-60
2022/01/17 09:13:36;;;;;;;32.10;6.20;;;6.50;99.90;;;;;;5048060;28;20103;-59
2022/01/17 09:16:02;;;;;;;28.70;6.07;;;6.60;99.90;;;;;;5047262;28;20283;-60
2022/01/17 09:18:28;;;;;;;33.75;3.95;;;6.60;99.90;;;;;;5046872;28;20048;-60
2022/01/17 09:20:54;;;;;;;27.30;4.78;;;6.60;99.90;;;;;;5045485;28;20045;-59
2022/01/17 09:23:21;;;;;;;35.83;5.73;;;6.60;99.90;;;;;;5047353;28;20033;-58
2022/01/17 09:25:47;;;;;;;29.48;5.30;;;6.60;99.90;;;;;;5047402;28;20517;-60
2022/01/17 09:28:13;;;;;;;31.27;5.20;;;6.70;99.90;;;;;;5047672;28;20029;-59
2022/01/17 09:30:38;;;;;;;23.15;3.72;;;6.70;99.90;;;;;;5047742;28;20048;-60
2022/01/17 09:33:05;;;;;;;36.13;4.83;;;6.70;99.90;;;;;;5046330;28;20025;-58
2022/01/17 09:35:32;;;;;;;31.90;4.75;;;6.80;99.90;;;;;;5045074;28;20037;-59
2022/01/17 09:37:58;;;;;;;33.97;5.03;;;6.80;99.90;;;;;;5051866;28;20048;-60
2022/01/17 09:40:24;;;;;;;37.22;5.07;;;6.80;99.90;;;;;;5050528;28;20402;-60
2022/01/17 09:42:50;;;;;;;33.78;5.18;;;6.80;99.90;;;;;;5051899;28;20040;-59
2022/01/17 09:45:18;;;;;;;34.60;4.70;;;6.90;99.90;;;;;;5049097;28;20498;-60
2022/01/17 09:47:45;;;;;;;25.60;3.25;;;6.90;99.90;;;;;;5042182;28;20049;-60
2022/01/17 09:50:17;;;;;;;28.27;4.28;;;7.00;99.90;;;;;;5051292;28;20521;-59
2022/01/17 09:52:51;;;;;;;30.98;5.22;;;7.00;99.90;;;;;;5050663;28;20029;-59
2022/01/17 09:55:23;;;;;;;39.85;6.47;;;7.10;99.90;;;;;;5051134;28;20045;-58
2022/01/17 09:57:54;;;;;;;37.80;5.20;;;7.10;99.90;;;;;;5049846;28;20047;-56
2022/01/17 10:00:25;;;;;;;32.95;5.45;;;7.10;99.90;;;;;;5051392;28;20056;-59
2022/01/17 10:02:56;;;;;;;25.90;3.92;;;7.20;99.90;;;;;;5050231;28;20051;-60
2022/01/17 10:05:22;;;;;;;30.33;4.80;;;7.30;99.90;;;;;;5049923;28;20506;-57
2022/01/17 10:07:55;;;;;;;38.40;5.60;;;7.30;99.90;;;;;;5050350;28;20491;-59
2022/01/17 10:11:01;;;;;;;30.73;4.95;;;7.40;99.90;;;;;;5049748;28;20252;-58
2022/01/17 10:13:32;;;;;;;29.27;3.90;;;7.40;99.90;;;;;;5050798;28;20033;-59
2022/01/17 10:16:25;;;;;;;29.13;4.75;;;7.50;99.90;;;;;;5050873;28;20136;-59
2022/01/17 10:19:03;;;;;;;41.50;5.32;;;7.60;99.90;;;;;;5045659;28;20052;-57
2022/01/17 10:21:42;;;;;;;25.33;4.43;;;7.60;99.90;;;;;;5040519;28;20111;-58
2022/01/17 10:24:18;;;;;;;45.92;7.28;;;7.60;99.90;;;;;;5050443;28;20037;-60
2022/01/17 10:34:56;;;;;;;38.58;5.57;;;7.80;99.90;;;;;;5040435;28;20041;-58
2022/01/17 10:37:26;;;;;;;42.13;5.18;;;7.80;99.90;;;;;;5049455;28;20049;-60
2022/01/17 10:40:00;;;;;;;29.48;4.63;;;7.90;99.90;;;;;;5054365;28;20043;-58
2022/01/17 10:42:35;;;;;;;32.00;4.93;;;7.90;99.90;;;;;;5057028;28;20485;-57
2022/01/17 10:45:08;;;;;;;24.50;5.90;;;7.90;99.90;;;;;;5051975;28;20084;-55
2022/01/17 10:47:40;;;;;;;33.72;4.38;;;8.00;99.90;;;;;;5049161;28;20033;-57
2022/01/17 10:50:27;;;;;;;39.63;5.55;;;8.10;99.90;;;;;;5050730;28;20033;-59
2022/01/17 10:52:58;;;;;;;42.53;6.50;;;8.10;99.90;;;;;;5039167;28;20040;-56
2022/01/17 10:55:26;;;;;;;30.50;4.65;;;8.10;99.90;;;;;;5044931;28;20362;-57
2022/01/17 10:57:55;;;;;;;37.08;4.50;;;8.20;99.90;;;;;;5049658;28;20041;-58
2022/01/17 11:00:25;;;;;;;28.70;5.53;;;8.50;99.90;;;;;;5050155;28;20029;-59
2022/01/17 11:02:54;;;;;;;33.97;4.78;;;9.00;99.90;;;;;;5049968;28;20079;-59
2022/01/17 11:05:22;;;;;;;29.10;6.72;;;9.60;99.90;;;;;;5049879;28;20435;-58
2022/01/17 11:07:51;;;;;;;30.00;5.18;;;10.00;99.90;;;;;;5049696;28;20037;-58
2022/01/17 11:10:23;;;;;;;35.47;5.15;;;10.40;99.90;;;;;;5049442;28;20033;-60
2022/01/17 11:12:51;;;;;;;28.20;5.13;;;10.60;99.90;;;;;;5050536;28;20122;-59
2022/01/17 11:15:18;;;;;;;35.97;5.88;;;10.60;99.90;;;;;;5048268;28;20375;-59
2022/01/17 11:17:50;;;;;;;37.05;4.78;;;10.50;99.90;;;;;;5049680;28;20036;-59
2022/01/17 11:20:16;;;;;;;29.85;5.25;;;10.40;99.90;;;;;;5049441;28;20037;-60
2022/01/17 11:22:45;;;;;;;39.85;5.32;;;10.20;99.90;;;;;;5049634;28;20592;-60
2022/01/17 11:25:17;;;;;;;40.03;6.75;;;10.10;99.90;;;;;;5048508;28;20040;-59
2022/01/17 11:27:43;;;;;;;33.25;5.70;;;9.90;99.90;;;;;;5048781;28;20464;-58
2022/01/17 11:30:10;;;;;;;34.30;6.43;;;9.80;99.90;;;;;;5047881;28;20037;-60
2022/01/17 11:32:36;;;;;;;33.42;7.68;;;9.70;99.90;;;;;;5050046;28;20502;-59
2022/01/17 11:35:03;;;;;;;;;;;9.60;99.90;;;;;;5050231;28;20425;-59
2022/01/17 11:37:34;;;;;;;35.90;6.27;;;9.50;99.90;;;;;;5047977;28;19924;-59
2022/01/17 11:40:00;;;;;;;38.72;5.75;;;9.50;99.90;;;;;;5056528;28;20065;-58
2022/01/17 11:42:35;;;;;;;42.50;7.55;;;9.40;99.90;;;;;;5028779;28;20498;-58
2022/01/17 11:45:23;;;;;;;43.72;6.38;;;9.40;99.90;;;;;;5045094;28;20409;-60
2022/01/17 11:47:51;;;;;;;;;;;9.30;99.90;;;;;;5044195;28;20410;-58
2022/01/17 11:50:30;;;;;;;43.15;7.07;;;9.30;99.90;;;;;;5047109;28;19916;-58
2022/01/17 11:53:00;;;;;;;40.40;7.63;;;9.40;99.90;;;;;;5049398;28;20502;-59
2022/01/17 11:55:43;;;;;;;39.67;6.55;;;9.50;99.90;;;;;;5047290;28;20060;-58
2022/01/17 11:58:30;;;;;;;39.60;6.13;;;9.70;99.90;;;;;;5048803;28;20099;-55
2022/01/17 12:01:01;;;;;;;38.03;5.55;;;9.90;99.90;;;;;;5039879;28;20040;-57
2022/01/17 12:03:47;;;;;;;34.03;5.07;;;10.00;99.90;;;;;;5049093;28;20060;-58
2022/01/17 12:06:35;;;;;;;37.33;5.57;;;10.10;99.90;;;;;;5037131;28;20057;-59
2022/01/17 12:09:24;;;;;;;36.00;6.57;;;10.10;99.90;;;;;;5047723;28;20068;-60
2022/01/17 12:12:03;;;;;;;42.42;6.78;;;10.20;99.90;;;;;;5041912;28;20067;-59
2022/01/17 12:14:33;;;;;;;38.38;5.15;;;10.10;99.90;;;;;;5048723;28;20037;-59
2022/01/17 12:17:23;;;;;;;35.20;6.57;;;10.20;99.90;;;;;;5047546;28;20043;-58
2022/01/17 12:20:09;;;;;;;37.75;6.30;;;10.40;99.90;;;;;;5048473;28;20413;-58
2022/01/17 12:22:43;;;;;;;31.20;6.90;;;11.00;99.90;;;;;;5044888;28;20146;-60
2022/01/17 12:25:22;;;;;;;38.95;6.15;;;11.40;99.90;;;;;;5048377;28;20033;-59
2022/01/17 12:27:49;;;;;;;38.10;6.45;;;11.40;99.90;;;;;;5046354;28;20126;-59
2022/01/17 12:30:16;;;;;;;37.72;8.25;;;11.40;99.90;;;;;;5046140;28;20506;-61
2022/01/17 12:32:47;;;;;;;28.00;5.90;;;11.20;99.90;;;;;;5047321;28;20436;-58
2022/01/17 12:35:19;;;;;;;46.58;6.80;;;11.10;99.90;;;;;;5049226;28;20102;-60
2022/01/17 12:37:46;;;;;;;28.67;5.50;;;11.00;99.90;;;;;;5065260;28;20036;-60
2022/01/17 12:40:32;;;;;;;33.20;5.60;;;10.80;99.90;;;;;;5055904;28;20041;-60
2022/01/17 12:43:13;;;;;;;38.13;6.10;;;10.60;99.90;;;;;;5054818;28;20041;-56
2022/01/17 12:45:47;;;;;;;42.20;6.22;;;10.50;99.90;;;;;;5054316;28;20063;-59
2022/01/17 12:48:17;;;;;;;26.10;4.22;;;10.40;99.90;;;;;;5053952;28;20498;-59
2022/01/17 12:50:46;;;;;;;34.47;6.45;;;10.20;99.90;;;;;;5063024;28;20120;-61
2022/01/17 12:53:14;;;;;;;36.08;6.43;;;10.20;99.90;;;;;;5055484;28;20417;-60
2022/01/17 12:55:43;;;;;;;33.28;6.63;;;10.10;99.90;;;;;;5055694;28;20041;-60
2022/01/17 12:58:14;;;;;;;38.53;5.30;;;10.00;99.90;;;;;;5048490;28;20060;-60
2022/01/17 13:00:45;;;;;;;35.35;6.60;;;10.00;99.90;;;;;;5061229;28;20039;-59
2022/01/17 13:03:13;;;;;;;38.55;5.63;;;10.30;99.90;;;;;;5055838;28;20053;-60
2022/01/17 13:05:39;;;;;;;26.27;5.53;;;10.40;99.90;;;;;;5060832;28;20076;-59
2022/01/17 13:08:05;;;;;;;29.92;6.32;;;10.50;99.90;;;;;;5055178;28;20079;-60
2022/01/17 13:10:32;;;;;;;31.15;5.35;;;10.50;99.90;;;;;;5060644;28;20061;-61
2022/01/17 13:12:59;;;;;;;32.88;6.85;;;10.50;99.90;;;;;;5059957;28;20119;-60
2022/01/17 13:15:24;;;;;;;29.15;5.43;;;10.40;99.90;;;;;;5061315;28;20050;-60